createdAt,value
2022-10-31T00:00:48.371Z,7.10
2022-10-31T00:03:24.657Z,7.50
2022-10-31T00:06:02.747Z,7.00
2022-10-31T00:08:38.552Z,7.30
2022-10-31T00:11:16.254Z,7.00
2022-10-31T00:13:53.222Z,6.90
2022-10-31T00:16:31.552Z,7.40
2022-10-31T00:19:10.531Z,8.00
2022-10-31T00:21:47.159Z,6.50
2022-10-31T00:24:24.769Z,6.60
2022-10-31T00:27:00.842Z,7.10
2022-10-31T00:29:37.569Z,7.40
2022-10-31T00:32:15.053Z,7.10
2022-10-31T00:34:51.833Z,9.70
2022-10-31T00:37:28.952Z,11.30
2022-10-31T00:40:05.245Z,13.50
2022-10-31T00:42:42.604Z,14.50
2022-10-31T00:45:19.960Z,14.70
2022-10-31T00:47:55.918Z,13.90
2022-10-31T00:50:32.814Z,13.50
2022-10-31T00:53:09.632Z,12.90
2022-10-31T00:55:44.861Z,13.50
2022-10-31T00:58:21.550Z,14.70
2022-10-31T01:00:58.623Z,14.00
2022-10-31T01:03:36.513Z,14.10
2022-10-31T01:06:16.222Z,12.10
2022-10-31T01:08:53.228Z,12.40
2022-10-31T01:11:30.434Z,12.00
2022-10-31T01:14:06.504Z,10.80
2022-10-31T01:16:42.805Z,10.20
2022-10-31T01:19:18.941Z,9.30
2022-10-31T01:21:57.058Z,9.00
2022-10-31T01:24:37.869Z,10.40
2022-10-31T01:27:13.868Z,7.80
2022-10-31T01:29:50.407Z,7.80
2022-10-31T01:32:26.995Z,7.80
2022-10-31T01:35:02.131Z,7.10
2022-10-31T01:37:39.454Z,7.10
2022-10-31T01:40:19.407Z,5.60
2022-10-31T01:42:55.475Z,6.50
2022-10-31T01:45:32.938Z,5.60
2022-10-31T01:48:15.039Z,6.20
2022-10-31T01:50:54.878Z,6.30
2022-10-31T01:53:31.837Z,6.10
2022-10-31T01:56:11.282Z,5.80
2022-10-31T01:58:49.029Z,6.00
2022-10-31T02:01:26.728Z,6.00
2022-10-31T02:04:03.477Z,7.70
2022-10-31T02:06:46.921Z,7.20
2022-10-31T02:09:24.735Z,6.90
2022-10-31T02:12:02.746Z,5.40
2022-10-31T02:14:39.881Z,5.30
2022-10-31T02:17:17.004Z,5.80
2022-10-31T02:20:03.944Z,6.30
2022-10-31T02:22:52.613Z,6.10
2022-10-31T02:25:57.570Z,6.30
2022-10-31T02:29:09.486Z,5.90
2022-10-31T02:31:55.649Z,9.30
2022-10-31T02:34:41.398Z,10.20
2022-10-31T02:37:24.741Z,10.50
2022-10-31T02:40:14.038Z,10.20
2022-10-31T02:43:23.317Z,9.20
2022-10-31T02:46:05.981Z,8.50
2022-10-31T02:48:49.903Z,8.50
2022-10-31T02:51:26.955Z,8.80
2022-10-31T02:54:03.617Z,13.00
2022-10-31T02:56:39.844Z,12.10
2022-10-31T02:59:16.767Z,13.20
2022-10-31T03:02:21.458Z,13.50
2022-10-31T03:08:12.280Z,12.80
2022-10-31T03:10:56.623Z,13.50
2022-10-31T03:13:44.041Z,13.70
2022-10-31T03:16:29.215Z,13.90
2022-10-31T03:19:11.088Z,14.10
2022-10-31T03:21:50.906Z,13.90
2022-10-31T03:24:33.334Z,14.00
2022-10-31T03:27:14.008Z,12.10
2022-10-31T03:29:52.706Z,12.60
2022-10-31T03:32:36.051Z,11.30
2022-10-31T03:35:19.261Z,11.80
2022-10-31T03:37:57.641Z,11.80
2022-10-31T03:40:36.499Z,11.50
2022-10-31T03:43:19.011Z,10.80
2022-10-31T03:45:56.157Z,10.10
2022-10-31T03:48:32.312Z,9.70
2022-10-31T03:51:18.575Z,9.80
2022-10-31T03:54:05.632Z,10.00
2022-10-31T03:56:53.023Z,9.20
2022-10-31T03:59:36.596Z,8.40
2022-10-31T04:02:18.099Z,8.30
2022-10-31T04:04:54.629Z,7.90
2022-10-31T04:07:35.619Z,8.70
2022-10-31T04:10:17.773Z,7.80
2022-10-31T04:13:01.542Z,7.10
2022-10-31T04:15:44.667Z,7.70
2022-10-31T04:18:20.918Z,7.80
2022-10-31T04:21:09.740Z,8.10
2022-10-31T04:23:46.450Z,8.30
2022-10-31T04:26:27.876Z,8.00
2022-10-31T04:29:04.228Z,7.40
2022-10-31T04:31:40.692Z,7.20
2022-10-31T04:34:16.653Z,7.70
2022-10-31T04:39:35.460Z,6.30
2022-10-31T04:42:36.573Z,6.30
2022-10-31T04:45:20.074Z,6.40
2022-10-31T04:48:00.213Z,6.90
2022-10-31T04:50:36.830Z,7.10
2022-10-31T04:53:12.052Z,6.00
2022-10-31T04:56:03.822Z,5.20
2022-10-31T04:58:50.911Z,5.40
2022-10-31T05:01:27.611Z,5.00
2022-10-31T05:04:04.665Z,5.10
2022-10-31T05:06:42.536Z,4.70
2022-10-31T05:09:18.479Z,4.80
2022-10-31T05:11:55.026Z,5.40
2022-10-31T05:14:50.980Z,5.40
2022-10-31T05:17:45.863Z,5.10
2022-10-31T05:20:44.349Z,4.60
2022-10-31T05:23:34.934Z,5.10
2022-10-31T05:26:11.749Z,4.40
2022-10-31T05:28:49.865Z,4.50
2022-10-31T05:31:26.314Z,5.80
2022-10-31T05:34:03.772Z,4.20
2022-10-31T05:37:06.395Z,4.10
2022-10-31T05:39:42.242Z,4.10
2022-10-31T05:42:26.371Z,4.10
2022-10-31T05:45:02.497Z,3.80
2022-10-31T05:48:06.910Z,4.10
2022-10-31T05:51:03.803Z,4.50
2022-10-31T05:53:40.824Z,5.40
2022-10-31T05:56:17.584Z,5.40
2022-10-31T05:58:53.323Z,6.20
2022-10-31T06:01:29.027Z,6.10
2022-10-31T06:04:07.884Z,6.80
2022-10-31T06:06:44.456Z,5.60
2022-10-31T06:09:20.291Z,4.40
2022-10-31T06:11:56.609Z,4.70
2022-10-31T06:14:35.773Z,6.10
2022-10-31T06:17:15.463Z,4.60
2022-10-31T06:19:57.886Z,4.70
2022-10-31T06:22:34.911Z,4.80
2022-10-31T06:25:13.508Z,5.50
2022-10-31T06:27:54.960Z,5.40
2022-10-31T06:30:32.073Z,6.50
2022-10-31T06:33:11.466Z,6.40
2022-10-31T06:35:52.570Z,6.70
2022-10-31T06:38:28.980Z,6.80
2022-10-31T06:41:10.693Z,7.20
2022-10-31T06:43:55.899Z,5.90
2022-10-31T06:46:51.707Z,6.80
2022-10-31T06:50:09.228Z,6.30
2022-10-31T06:52:46.038Z,4.70
2022-10-31T06:55:23.721Z,5.70
2022-10-31T06:58:03.461Z,5.50
2022-10-31T07:00:40.205Z,5.70
2022-10-31T07:03:18.538Z,5.70
2022-10-31T07:05:55.002Z,7.10
2022-10-31T07:08:31.496Z,6.80
2022-10-31T07:11:08.061Z,7.40
2022-10-31T07:13:45.019Z,7.20
2022-10-31T07:16:22.051Z,7.30
2022-10-31T07:18:58.035Z,6.70
2022-10-31T07:21:34.364Z,6.40
2022-10-31T07:24:14.045Z,7.00
2022-10-31T07:26:53.678Z,6.90
2022-10-31T07:29:29.753Z,7.10
2022-10-31T07:32:09.715Z,7.30
2022-10-31T07:34:48.594Z,8.40
2022-10-31T07:37:43.143Z,7.50
2022-10-31T07:40:21.948Z,8.20
2022-10-31T07:43:00.985Z,8.40
2022-10-31T07:46:23.271Z,8.00
2022-10-31T07:49:29.476Z,8.60
2022-10-31T07:52:24.261Z,8.80
2022-10-31T07:55:38.349Z,8.60
2022-10-31T07:58:18.797Z,8.70
2022-10-31T08:00:56.459Z,8.00
2022-10-31T08:03:37.624Z,7.90
2022-10-31T08:06:19.795Z,7.80
2022-10-31T08:09:18.923Z,7.00
2022-10-31T08:11:55.383Z,8.10
2022-10-31T08:14:31.783Z,7.70
2022-10-31T08:17:08.003Z,8.30
2022-10-31T08:19:51.658Z,10.20
2022-10-31T08:22:29.325Z,10.60
2022-10-31T08:25:05.157Z,10.70
2022-10-31T08:27:43.116Z,10.00
2022-10-31T08:30:26.982Z,10.70
2022-10-31T08:33:24.110Z,10.80
2022-10-31T08:36:19.571Z,12.50
2022-10-31T08:39:04.637Z,11.20
2022-10-31T08:41:40.863Z,11.90
2022-10-31T08:44:20.814Z,11.80
2022-10-31T08:46:57.635Z,12.60
2022-10-31T08:49:33.756Z,13.40
2022-10-31T08:52:14.479Z,13.40
2022-10-31T08:54:54.582Z,13.10
2022-10-31T08:57:49.595Z,13.90
2022-10-31T09:00:26.667Z,14.50
2022-10-31T09:03:13.844Z,15.80
2022-10-31T09:05:51.987Z,15.10
2022-10-31T09:08:27.930Z,15.70
2022-10-31T09:11:06.361Z,14.60
2022-10-31T09:14:15.543Z,15.00
2022-10-31T09:17:11.560Z,14.80
2022-10-31T09:20:02.670Z,15.40
2022-10-31T09:22:41.547Z,14.90
2022-10-31T09:25:23.911Z,15.00
2022-10-31T09:28:07.392Z,15.50
2022-10-31T09:30:45.831Z,15.00
2022-10-31T09:33:22.402Z,14.10
2022-10-31T09:36:13.561Z,14.10
2022-10-31T09:38:50.216Z,15.60
2022-10-31T09:41:41.349Z,14.90
2022-10-31T09:44:29.649Z,15.40
2022-10-31T09:47:16.358Z,14.50
2022-10-31T09:50:19.826Z,15.50
2022-10-31T09:53:05.872Z,16.00
2022-10-31T09:55:48.231Z,17.30
2022-10-31T09:58:31.277Z,18.90
2022-10-31T10:01:10.357Z,18.00
2022-10-31T10:03:53.400Z,18.50
2022-10-31T10:06:54.281Z,19.50
2022-10-31T10:10:01.255Z,19.80
2022-10-31T10:13:53.192Z,19.60
2022-10-31T10:16:50.448Z,21.60
2022-10-31T10:19:49.315Z,22.00
2022-10-31T10:22:39.483Z,22.90
2022-10-31T10:25:31.251Z,22.70
2022-10-31T10:28:19.747Z,23.50
2022-10-31T10:31:03.763Z,23.80
2022-10-31T10:33:47.118Z,21.80
2022-10-31T10:36:30.407Z,21.40
2022-10-31T10:39:21.249Z,21.80
2022-10-31T10:42:15.890Z,20.00
2022-10-31T10:45:12.869Z,20.40
2022-10-31T10:47:59.681Z,20.10
2022-10-31T10:50:43.112Z,21.90
2022-10-31T10:53:36.660Z,20.40
2022-10-31T10:56:39.789Z,23.30
2022-10-31T10:59:21.649Z,23.10
2022-10-31T11:01:59.529Z,24.00
2022-10-31T11:04:39.355Z,21.50
2022-10-31T11:07:17.050Z,23.10
2022-10-31T11:09:53.368Z,23.50
2022-10-31T11:12:32.919Z,24.50
2022-10-31T11:15:24.090Z,21.40
2022-10-31T11:18:01.991Z,22.50
2022-10-31T11:20:41.471Z,22.00
2022-10-31T11:23:28.964Z,21.60
2022-10-31T11:26:08.436Z,22.20
2022-10-31T11:28:45.023Z,21.80
2022-10-31T11:31:22.031Z,21.60
2022-10-31T11:34:07.369Z,19.50
2022-10-31T11:36:49.502Z,22.10
2022-10-31T11:39:29.211Z,21.80
2022-10-31T11:42:09.316Z,20.20
2022-10-31T11:44:49.367Z,20.50
2022-10-31T11:47:32.057Z,23.10
2022-10-31T11:50:22.396Z,21.90
2022-10-31T11:53:00.218Z,22.00
2022-10-31T11:55:45.091Z,21.30
2022-10-31T11:58:32.984Z,20.80
2022-10-31T12:01:25.082Z,21.00
2022-10-31T12:04:10.087Z,21.60
2022-10-31T12:06:48.857Z,22.40
2022-10-31T12:09:32.124Z,21.20
2022-10-31T12:12:48.544Z,22.60
2022-10-31T12:15:37.860Z,21.10
2022-10-31T12:18:37.358Z,21.20
2022-10-31T12:21:33.884Z,22.30
2022-10-31T12:24:27.317Z,21.70
2022-10-31T12:27:21.227Z,21.80
2022-10-31T12:30:23.999Z,21.30
2022-10-31T12:33:27.662Z,19.60
2022-10-31T12:36:24.218Z,22.20
2022-10-31T12:39:29.189Z,21.00
2022-10-31T12:42:18.751Z,22.00
2022-10-31T12:45:22.140Z,22.60
2022-10-31T12:48:33.672Z,23.10
2022-10-31T12:51:26.249Z,23.10
2022-10-31T12:54:47.964Z,23.30
2022-10-31T12:57:37.251Z,23.30
2022-10-31T13:00:24.250Z,22.80
2022-10-31T13:03:23.039Z,24.20
2022-10-31T13:06:06.973Z,23.10
2022-10-31T13:08:49.569Z,24.70
2022-10-31T13:11:32.496Z,23.10
2022-10-31T13:14:15.281Z,22.30
2022-10-31T13:16:55.488Z,22.40
2022-10-31T13:19:36.493Z,22.50
2022-10-31T13:22:25.425Z,20.60
2022-10-31T13:25:16.839Z,23.30
2022-10-31T13:28:00.952Z,21.20
2022-10-31T13:30:42.188Z,22.40
2022-10-31T13:33:27.485Z,21.30
2022-10-31T13:36:25.079Z,22.00
2022-10-31T13:39:14.412Z,21.80
2022-10-31T13:41:57.010Z,20.70
2022-10-31T13:44:38.870Z,20.40
2022-10-31T13:47:31.893Z,20.50
2022-10-31T13:50:29.329Z,19.80
2022-10-31T13:53:26.365Z,19.00
2022-10-31T13:56:31.486Z,19.40
2022-10-31T13:59:23.665Z,19.50
2022-10-31T14:02:06.269Z,19.60
2022-10-31T14:07:32.822Z,19.90
2022-10-31T14:10:26.030Z,19.40
2022-10-31T14:13:12.851Z,19.30
2022-10-31T14:15:59.609Z,20.00
2022-10-31T14:18:39.912Z,19.60
2022-10-31T14:21:40.748Z,17.60
2022-10-31T14:24:37.570Z,18.00
2022-10-31T14:27:50.588Z,19.50
2022-10-31T14:30:30.884Z,18.10
2022-10-31T14:33:21.879Z,17.60
2022-10-31T14:36:08.173Z,18.10
2022-10-31T14:39:01.817Z,18.90
2022-10-31T14:42:14.638Z,17.80
2022-10-31T14:45:24.864Z,18.20
2022-10-31T14:48:19.846Z,19.00
2022-10-31T14:50:59.861Z,17.70
2022-10-31T14:53:47.162Z,17.10
2022-10-31T14:56:28.911Z,17.80
2022-10-31T14:59:13.573Z,19.20
2022-10-31T15:02:02.888Z,17.70
2022-10-31T15:04:42.179Z,18.30
2022-10-31T15:07:24.897Z,19.00
2022-10-31T15:10:22.713Z,18.90
2022-10-31T15:12:59.550Z,19.10
2022-10-31T15:15:38.786Z,20.30
2022-10-31T15:18:24.592Z,19.30
2022-10-31T15:21:02.986Z,18.30
2022-10-31T15:23:40.123Z,19.10
2022-10-31T15:26:26.556Z,20.00
2022-10-31T15:29:15.172Z,19.00
2022-10-31T15:31:59.882Z,18.30
2022-10-31T15:34:42.867Z,18.50
2022-10-31T15:37:22.642Z,20.10
2022-10-31T15:39:58.892Z,18.40
2022-10-31T15:42:42.952Z,20.40
2022-10-31T15:45:29.771Z,22.00
2022-10-31T15:48:10.328Z,22.60
2022-10-31T15:50:52.570Z,22.00
2022-10-31T15:53:36.114Z,20.50
2022-10-31T15:56:23.506Z,19.90
2022-10-31T15:59:04.222Z,19.20
2022-10-31T16:01:41.459Z,26.60
2022-10-31T16:04:32.868Z,26.00
2022-10-31T16:07:23.402Z,27.20
2022-10-31T16:10:05.933Z,23.80
2022-10-31T16:12:49.013Z,22.40
2022-10-31T16:15:27.848Z,21.50
2022-10-31T16:18:04.026Z,22.60
2022-10-31T16:20:39.858Z,21.20
2022-10-31T16:23:24.508Z,20.60
2022-10-31T16:26:01.353Z,20.80
2022-10-31T16:28:39.680Z,20.80
2022-10-31T16:31:30.640Z,22.20
2022-10-31T16:34:26.003Z,20.60
2022-10-31T16:37:07.435Z,21.00
2022-10-31T16:39:44.029Z,21.30
2022-10-31T16:42:20.582Z,21.50
2022-10-31T16:44:57.842Z,20.50
2022-10-31T16:47:34.713Z,19.50
2022-10-31T16:50:21.693Z,21.90
2022-10-31T16:53:13.516Z,22.20
2022-10-31T16:55:54.242Z,24.20
2022-10-31T16:58:34.010Z,26.90
2022-10-31T17:01:12.139Z,30.30
2022-10-31T17:03:48.460Z,30.20
2022-10-31T17:06:28.613Z,30.50
2022-10-31T17:09:05.103Z,30.50
2022-10-31T17:11:48.413Z,30.70
2022-10-31T17:14:26.998Z,25.80
2022-10-31T17:17:02.729Z,27.30
2022-10-31T17:19:39.594Z,26.10
2022-10-31T17:22:17.423Z,26.40
2022-10-31T17:24:55.139Z,29.30
2022-10-31T17:27:31.262Z,27.40
2022-10-31T17:30:08.027Z,29.80
2022-10-31T17:32:44.065Z,28.60
2022-10-31T17:35:22.129Z,29.50
2022-10-31T17:37:58.811Z,28.00
2022-10-31T17:40:35.565Z,27.90
2022-10-31T17:43:11.695Z,26.80
2022-10-31T17:45:48.920Z,25.80
2022-10-31T17:48:25.839Z,28.50
2022-10-31T17:51:21.495Z,28.10
2022-10-31T17:53:58.363Z,28.10
2022-10-31T17:56:37.392Z,28.80
2022-10-31T17:59:13.564Z,27.70
2022-10-31T18:01:49.876Z,26.00
2022-10-31T18:04:25.315Z,27.10
2022-10-31T18:07:02.161Z,24.90
2022-10-31T18:09:37.795Z,25.80
2022-10-31T18:12:14.479Z,26.70
2022-10-31T18:14:50.329Z,24.10
2022-10-31T18:17:26.868Z,22.10
2022-10-31T18:20:03.143Z,21.10
2022-10-31T18:22:39.630Z,22.10
2022-10-31T18:25:17.433Z,22.00
2022-10-31T18:27:53.674Z,23.30
2022-10-31T18:30:30.353Z,22.00
2022-10-31T18:33:06.993Z,22.10
2022-10-31T18:35:45.182Z,20.90
2022-10-31T18:38:21.603Z,21.10
2022-10-31T18:40:58.883Z,21.40
2022-10-31T18:43:35.827Z,20.50
2022-10-31T18:46:14.541Z,20.40
2022-10-31T18:48:51.395Z,19.20
2022-10-31T18:51:28.407Z,18.20
2022-10-31T18:54:09.664Z,17.50
2022-10-31T18:56:46.212Z,17.50
2022-10-31T18:59:22.831Z,16.90
2022-10-31T19:01:59.455Z,15.20
2022-10-31T19:04:35.664Z,16.30
2022-10-31T19:07:16.335Z,15.50
2022-10-31T19:09:52.929Z,18.40
2022-10-31T19:12:29.523Z,16.90
2022-10-31T19:15:06.805Z,17.00
2022-10-31T19:17:42.850Z,15.60
2022-10-31T19:20:24.884Z,15.30
2022-10-31T19:23:01.328Z,14.00
2022-10-31T19:28:21.739Z,14.30
2022-10-31T19:31:02.040Z,15.20
2022-10-31T19:33:40.019Z,14.30
2022-10-31T19:36:20.219Z,13.60
2022-10-31T19:38:57.587Z,14.20
2022-10-31T19:41:34.493Z,13.90
2022-10-31T19:44:13.386Z,11.10
2022-10-31T19:46:54.121Z,14.00
2022-10-31T19:49:33.929Z,13.40
2022-10-31T19:52:28.326Z,12.80
2022-10-31T19:55:04.462Z,11.00
2022-10-31T19:58:00.659Z,12.90
2022-10-31T20:00:40.001Z,11.80
2022-10-31T20:03:19.925Z,10.10
2022-10-31T20:05:58.967Z,10.10
2022-10-31T20:08:39.448Z,9.90
2022-10-31T20:11:16.008Z,11.90
2022-10-31T20:13:53.019Z,10.20
2022-10-31T20:16:30.231Z,9.50
2022-10-31T20:19:06.680Z,10.00
2022-10-31T20:21:45.540Z,10.60
2022-10-31T20:24:21.647Z,9.20
2022-10-31T20:26:58.915Z,9.80
2022-10-31T20:29:34.696Z,9.30
2022-10-31T20:32:11.052Z,9.30
2022-10-31T20:37:25.080Z,8.90
2022-10-31T20:40:01.476Z,9.00
2022-10-31T20:42:37.151Z,8.50
2022-10-31T20:45:17.251Z,8.60
2022-10-31T20:47:53.517Z,8.90
2022-10-31T20:50:30.772Z,8.90
2022-10-31T20:53:07.412Z,8.80
2022-10-31T20:55:43.991Z,7.30
2022-10-31T20:58:19.702Z,8.10
2022-10-31T21:00:55.634Z,9.50
2022-10-31T21:03:31.536Z,8.60
2022-10-31T21:06:10.330Z,9.40
2022-10-31T21:08:46.991Z,7.30
2022-10-31T21:11:26.781Z,8.10
2022-10-31T21:14:02.960Z,7.60
2022-10-31T21:16:41.396Z,8.30
2022-10-31T21:19:18.437Z,8.60
2022-10-31T21:21:54.638Z,7.50
2022-10-31T21:24:31.464Z,7.20
2022-10-31T21:27:09.958Z,7.80
2022-10-31T21:29:47.964Z,7.40
2022-10-31T21:32:23.627Z,7.30
2022-10-31T21:35:00.408Z,7.50
2022-10-31T21:37:37.030Z,7.50
2022-10-31T21:40:18.751Z,7.40
2022-10-31T21:42:54.807Z,6.80
2022-10-31T21:45:31.262Z,6.80
2022-10-31T21:48:08.394Z,6.30
2022-10-31T21:50:43.947Z,6.90
2022-10-31T21:53:37.410Z,6.70
2022-10-31T21:56:16.290Z,6.60
2022-10-31T21:58:52.987Z,6.80
2022-10-31T22:01:31.678Z,6.30
2022-10-31T22:04:09.282Z,5.90
2022-10-31T22:06:45.675Z,5.80
2022-10-31T22:09:23.967Z,6.40
2022-10-31T22:12:01.534Z,5.60
2022-10-31T22:14:38.042Z,6.10
2022-10-31T22:17:13.617Z,6.30
2022-10-31T22:19:49.213Z,5.40
2022-10-31T22:22:26.424Z,5.50
2022-10-31T22:25:02.877Z,6.50
2022-10-31T22:27:39.494Z,6.30
2022-10-31T22:30:20.164Z,6.60
2022-10-31T22:32:56.272Z,6.40
2022-10-31T22:35:32.350Z,6.40
2022-10-31T22:38:08.247Z,6.20
2022-10-31T22:40:44.390Z,6.00
2022-10-31T22:43:20.575Z,6.20
2022-10-31T22:46:03.734Z,6.20
2022-10-31T22:48:44.553Z,6.10
2022-10-31T22:51:24.304Z,6.30
2022-10-31T22:54:01.043Z,6.00
2022-10-31T22:56:39.701Z,5.50
2022-10-31T22:59:20.201Z,5.90
2022-10-31T23:01:56.456Z,5.80
2022-10-31T23:04:33.082Z,5.40
2022-10-31T23:07:13.601Z,6.60
2022-10-31T23:09:50.600Z,6.10
2022-10-31T23:12:43.192Z,5.20
2022-10-31T23:15:19.962Z,5.70
2022-10-31T23:17:55.955Z,5.80
2022-10-31T23:20:33.106Z,5.40
2022-10-31T23:23:09.400Z,5.60
2022-10-31T23:26:04.758Z,5.40
2022-10-31T23:28:40.753Z,4.70
2022-10-31T23:31:16.690Z,5.30
2022-10-31T23:33:53.907Z,5.30
2022-10-31T23:36:29.887Z,5.60
2022-10-31T23:39:06.118Z,5.50
2022-10-31T23:41:42.118Z,5.60
2022-10-31T23:44:18.747Z,5.90
2022-10-31T23:46:55.399Z,6.70
2022-10-31T23:49:31.829Z,6.00
2022-10-31T23:52:08.440Z,5.50
2022-10-31T23:54:44.115Z,5.80
2022-10-31T23:57:21.431Z,5.40
2022-10-31T23:59:56.991Z,6.20
